Hansboro, North Dakota
Current Conditions -  °F | °C
As of 11:15 AM on Wednesday 26 Nov 2014 (Local Time) from K06D Reporting Station
Clear Clear  
Wind Chill: -16°   Ceiling: Unl
Heat Index: -4°   Visibility: 10mi
Dew Point: -9°   Wind: 6mph
Humidity: 78%   Direction: 40°NE
Pressure: 30.39"   Gusts: NA
Location:  48.95°N, 99.38°W
Report Text: K06D 261715Z AUTO 04005KT 10SM CLR M20/M23 A3039 RMK AO2
Loading
Personal Weather Stations






























Interactive Weather Map New forecast layout! Learn more

10-Day Weather Forecast

Advertisements
Track Severe Weather on mobile